Terminal Aerodrome Forecast
Issued by NWS

Home | Current Version | Previous Version | Text Only | Print | Product List | Glossary Off
Versions: 1 2 3 4 5 6 7 8 9 10 11 12 13 14 15 16 17 18 19 20 21 22 23 24

000
FTUS43 KTOP 241700
TAFMHK
TAF
KMHK 241727Z 2418/2518 22011KT P6SM BKN250
     FM242300 25003KT P6SM FEW250
     FM251000 VRB02KT 3SM BR SKC
     FM251400 01005KT P6SM SKC=

USA.gov is the U.S. government's official web portal to all federal, state and local government web resources and services.